Elizabeth, Arkansas
Current Conditions -  °F | °C
As of 1:53 AM on Thursday 27 Nov 2014 (Local Time) from KBPK Reporting Station
Overcast Overcast  
Wind Chill: 26°   Ceiling: 2800
Heat Index: 34°   Visibility: 9mi
Dew Point: 24°   Wind: 10mph
Humidity: 67%   Direction: 320°NW
Pressure: 30.34"   Gusts: 17mph
Location:  36.33°N, 92.1°W
Report Text: KBPK 270753Z AUTO 32009G15KT 9SM OVC028 01/M04 A3034 RMK AO2 SLP278 T00111044
Loading
Personal Weather Stations






























Interactive Weather Map New forecast layout! Learn more

10-Day Weather Forecast

Advertisements
Track Severe Weather on mobile